sensor_id;sensor_type;location;lat;lon;timestamp;pressure;altitude;pressure_sealevel;temperature;humidity
43125;BME280;49182;50.788;7.318;2023-02-15T00:01:05;102283.56;;;-1.01;100.00
43125;BME280;49182;50.788;7.318;2023-02-15T00:03:31;102299.88;;;-0.94;100.00
43125;BME280;49182;50.788;7.318;2023-02-15T00:05:58;102295.53;;;-0.92;100.00
43125;BME280;49182;50.788;7.318;2023-02-15T00:08:25;102293.84;;;-0.96;100.00
43125;BME280;49182;50.788;7.318;2023-02-15T00:11:03;102271.56;;;-1.11;100.00
43125;BME280;49182;50.788;7.318;2023-02-15T00:13:30;102289.63;;;-1.03;100.00
43125;BME280;49182;50.788;7.318;2023-02-15T00:16:00;102287.03;;;-1.02;100.00
43125;BME280;49182;50.788;7.318;2023-02-15T00:18:27;102292.16;;;-0.99;100.00
43125;BME280;49182;50.788;7.318;2023-02-15T00:20:54;102251.88;;;-1.23;100.00
43125;BME280;49182;50.788;7.318;2023-02-15T00:23:20;102293.06;;;-1.01;100.00
43125;BME280;49182;50.788;7.318;2023-02-15T00:25:47;102284.50;;;-1.06;100.00
43125;BME280;49182;50.788;7.318;2023-02-15T00:28:15;102271.63;;;-1.15;100.00
43125;BME280;49182;50.788;7.318;2023-02-15T00:30:42;102281.06;;;-1.08;100.00
43125;BME280;49182;50.788;7.318;2023-02-15T00:33:08;102277.59;;;-1.07;100.00
43125;BME280;49182;50.788;7.318;2023-02-15T00:35:35;102281.94;;;-1.09;100.00
43125;BME280;49182;50.788;7.318;2023-02-15T00:38:01;102257.09;;;-1.27;100.00
43125;BME280;49182;50.788;7.318;2023-02-15T00:40:29;102275.09;;;-1.15;100.00
43125;BME280;49182;50.788;7.318;2023-02-15T00:42:56;102245.16;;;-1.37;100.00
43125;BME280;49182;50.788;7.318;2023-02-15T00:45:24;102276.09;;;-1.27;100.00
43125;BME280;49182;50.788;7.318;2023-02-15T00:47:51;102277.03;;;-1.31;100.00
43125;BME280;49182;50.788;7.318;2023-02-15T00:50:17;102272.72;;;-1.32;100.00
43125;BME280;49182;50.788;7.318;2023-02-15T00:52:45;102277.03;;;-1.32;100.00
43125;BME280;49182;50.788;7.318;2023-02-15T00:55:11;102256.38;;;-1.38;100.00
43125;BME280;49182;50.788;7.318;2023-02-15T00:57:38;102271.88;;;-1.35;100.00
43125;BME280;49182;50.788;7.318;2023-02-15T01:00:06;102277.97;;;-1.38;100.00
43125;BME280;49182;50.788;7.318;2023-02-15T01:02:34;102268.50;;;-1.40;100.00
43125;BME280;49182;50.788;7.318;2023-02-15T01:05:01;102272.00;;;-1.43;100.00
43125;BME280;49182;50.788;7.318;2023-02-15T01:07:28;102236.81;;;-1.60;100.00
43125;BME280;49182;50.788;7.318;2023-02-15T01:09:54;102265.94;;;-1.43;100.00
43125;BME280;49182;50.788;7.318;2023-02-15T01:12:21;102253.16;;;-1.55;100.00
43125;BME280;49182;50.788;7.318;2023-02-15T01:14:47;102269.44;;;-1.47;100.00
43125;BME280;49182;50.788;7.318;2023-02-15T01:17:14;102272.88;;;-1.47;100.00
43125;BME280;49182;50.788;7.318;2023-02-15T01:19:42;102272.88;;;-1.44;100.00
43125;BME280;49182;50.788;7.318;2023-02-15T01:22:08;102270.25;;;-1.42;100.00
43125;BME280;49182;50.788;7.318;2023-02-15T01:24:35;102258.19;;;-1.46;100.00
43125;BME280;49182;50.788;7.318;2023-02-15T01:27:02;102268.63;;;-1.51;100.00
43125;BME280;49182;50.788;7.318;2023-02-15T01:29:28;102246.34;;;-1.66;100.00
43125;BME280;49182;50.788;7.318;2023-02-15T01:31:55;102259.19;;;-1.56;100.00
43125;BME280;49182;50.788;7.318;2023-02-15T01:34:22;102256.63;;;-1.59;100.00
43125;BME280;49182;50.788;7.318;2023-02-15T01:36:50;102247.97;;;-1.58;100.00
43125;BME280;49182;50.788;7.318;2023-02-15T01:39:16;102254.88;;;-1.56;100.00
43125;BME280;49182;50.788;7.318;2023-02-15T01:41:43;102245.44;;;-1.61;100.00
43125;BME280;49182;50.788;7.318;2023-02-15T01:47:22;102248.97;;;-1.67;100.00
43125;BME280;49182;50.788;7.318;2023-02-15T01:50:00;102237.75;;;-1.69;100.00
43125;BME280;49182;50.788;7.318;2023-02-15T01:52:29;102236.88;;;-1.68;100.00
43125;BME280;49182;50.788;7.318;2023-02-15T01:54:56;102232.53;;;-1.66;100.00
43125;BME280;49182;50.788;7.318;2023-02-15T01:57:25;102230.78;;;-1.64;100.00
43125;BME280;49182;50.788;7.318;2023-02-15T01:59:56;102237.78;;;-1.72;100.00
43125;BME280;49182;50.788;7.318;2023-02-15T02:02:25;102236.09;;;-1.78;100.00
43125;BME280;49182;50.788;7.318;2023-02-15T02:04:54;102234.38;;;-1.79;100.00
43125;BME280;49182;50.788;7.318;2023-02-15T02:07:27;102223.16;;;-1.78;100.00
43125;BME280;49182;50.788;7.318;2023-02-15T02:09:56;102209.50;;;-1.89;100.00
43125;BME280;49182;50.788;7.318;2023-02-15T02:12:24;102224.06;;;-1.80;100.00
43125;BME280;49182;50.788;7.318;2023-02-15T02:14:52;102228.44;;;-1.85;100.00
43125;BME280;49182;50.788;7.318;2023-02-15T02:17:29;102222.41;;;-1.86;100.00
43125;BME280;49182;50.788;7.318;2023-02-15T02:20:16;102215.47;;;-1.84;100.00
43125;BME280;49182;50.788;7.318;2023-02-15T02:23:04;102226.72;;;-1.86;100.00
43125;BME280;49182;50.788;7.318;2023-02-15T02:29:08;102209.44;;;-1.84;100.00
43125;BME280;49182;50.788;7.318;2023-02-15T02:32:00;102211.16;;;-1.83;100.00
43125;BME280;49182;50.788;7.318;2023-02-15T02:34:37;102204.31;;;-1.90;100.00
43125;BME280;49182;50.788;7.318;2023-02-15T02:37:12;102201.78;;;-1.96;100.00
43125;BME280;49182;50.788;7.318;2023-02-15T02:39:50;102194.03;;;-1.96;100.00
43125;BME280;49182;50.788;7.318;2023-02-15T02:42:27;102196.63;;;-1.95;100.00
43125;BME280;49182;50.788;7.318;2023-02-15T02:45:00;102193.16;;;-1.94;100.00
43125;BME280;49182;50.788;7.318;2023-02-15T02:47:32;102179.53;;;-2.11;100.00
43125;BME280;49182;50.788;7.318;2023-02-15T02:50:03;102157.31;;;-2.29;100.00
43125;BME280;49182;50.788;7.318;2023-02-15T02:52:36;102201.00;;;-2.00;100.00
43125;BME280;49182;50.788;7.318;2023-02-15T02:55:04;102187.19;;;-2.00;100.00
43125;BME280;49182;50.788;7.318;2023-02-15T02:57:33;102192.38;;;-2.04;100.00
43125;BME280;49182;50.788;7.318;2023-02-15T03:00:05;102184.63;;;-2.04;100.00
43125;BME280;49182;50.788;7.318;2023-02-15T03:02:36;102187.25;;;-2.07;100.00
43125;BME280;49182;50.788;7.318;2023-02-15T03:05:09;102179.50;;;-2.10;100.00
43125;BME280;49182;50.788;7.318;2023-02-15T03:07:38;102170.00;;;-2.09;100.00
43125;BME280;49182;50.788;7.318;2023-02-15T03:10:07;102164.84;;;-2.09;100.00
43125;BME280;49182;50.788;7.318;2023-02-15T03:12:36;102174.38;;;-2.14;100.00
43125;BME280;49182;50.788;7.318;2023-02-15T03:15:06;102171.00;;;-2.18;100.00
43125;BME280;49182;50.788;7.318;2023-02-15T03:17:38;102171.88;;;-2.22;100.00
43125;BME280;49182;50.788;7.318;2023-02-15T03:20:13;102169.25;;;-2.17;100.00
43125;BME280;49182;50.788;7.318;2023-02-15T03:22:44;102159.78;;;-2.17;100.00
43125;BME280;49182;50.788;7.318;2023-02-15T03:25:17;102160.63;;;-2.18;100.00
43125;BME280;49182;50.788;7.318;2023-02-15T03:27:49;102152.94;;;-2.24;100.00
43125;BME280;49182;50.788;7.318;2023-02-15T03:30:20;102158.00;;;-2.15;100.00
43125;BME280;49182;50.788;7.318;2023-02-15T03:32:48;102148.56;;;-2.19;100.00
43125;BME280;49182;50.788;7.318;2023-02-15T03:35:19;102152.91;;;-2.21;100.00
43125;BME280;49182;50.788;7.318;2023-02-15T03:37:50;102138.38;;;-2.32;100.00
43125;BME280;49182;50.788;7.318;2023-02-15T03:40:23;102149.44;;;-2.21;100.00
43125;BME280;49182;50.788;7.318;2023-02-15T03:42:58;102144.28;;;-2.21;100.00
43125;BME280;49182;50.788;7.318;2023-02-15T03:45:29;102143.47;;;-2.23;100.00
43125;BME280;49182;50.788;7.318;2023-02-15T03:47:59;102134.84;;;-2.25;100.00
43125;BME280;49182;50.788;7.318;2023-02-15T03:50:30;102142.59;;;-2.27;100.00
43125;BME280;49182;50.788;7.318;2023-02-15T03:52:59;102143.53;;;-2.31;100.00
43125;BME280;49182;50.788;7.318;2023-02-15T03:55:27;102150.44;;;-2.31;100.00
43125;BME280;49182;50.788;7.318;2023-02-15T03:57:55;102148.69;;;-2.29;100.00
43125;BME280;49182;50.788;7.318;2023-02-15T04:00:24;102144.34;;;-2.27;100.00
43125;BME280;49182;50.788;7.318;2023-02-15T04:03:07;102145.25;;;-2.31;100.00
43125;BME280;49182;50.788;7.318;2023-02-15T04:05:36;102141.81;;;-2.32;100.00
43125;BME280;49182;50.788;7.318;2023-02-15T04:08:03;102148.69;;;-2.31;100.00
43125;BME280;49182;50.788;7.318;2023-02-15T04:10:30;102147.84;;;-2.30;100.00
43125;BME280;49182;50.788;7.318;2023-02-15T04:12:57;102146.97;;;-2.30;100.00
43125;BME280;49182;50.788;7.318;2023-02-15T04:15:23;102146.97;;;-2.30;100.00
43125;BME280;49182;50.788;7.318;2023-02-15T04:17:50;102144.34;;;-2.27;100.00
43125;BME280;49182;50.788;7.318;2023-02-15T04:20:16;102124.63;;;-2.39;100.00
43125;BME280;49182;50.788;7.318;2023-02-15T04:22:44;102140.94;;;-2.31;100.00
43125;BME280;49182;50.788;7.318;2023-02-15T04:25:11;102135.03;;;-2.43;100.00
43125;BME280;49182;50.788;7.318;2023-02-15T04:27:38;102148.78;;;-2.40;100.00
43125;BME280;49182;50.788;7.318;2023-02-15T04:30:06;102146.22;;;-2.43;100.00
43125;BME280;49182;50.788;7.318;2023-02-15T04:32:33;102135.88;;;-2.41;100.00
43125;BME280;49182;50.788;7.318;2023-02-15T04:35:00;102140.16;;;-2.37;100.00
43125;BME280;49182;50.788;7.318;2023-02-15T04:37:27;102138.41;;;-2.37;100.00
43125;BME280;49182;50.788;7.318;2023-02-15T04:39:55;102135.03;;;-2.43;100.00
43125;BME280;49182;50.788;7.318;2023-02-15T04:42:21;102135.91;;;-2.46;100.00
43125;BME280;49182;50.788;7.318;2023-02-15T04:44:48;102090.47;;;-2.71;100.00
43125;BME280;49182;50.788;7.318;2023-02-15T04:47:14;102127.34;;;-2.50;100.00
43125;BME280;49182;50.788;7.318;2023-02-15T04:49:41;102131.66;;;-2.50;100.00
43125;BME280;49182;50.788;7.318;2023-02-15T04:52:08;102141.13;;;-2.52;100.00
43125;BME280;49182;50.788;7.318;2023-02-15T04:54:35;102125.66;;;-2.55;100.00
43125;BME280;49182;50.788;7.318;2023-02-15T04:57:03;102131.59;;;-2.44;100.00
43125;BME280;49182;50.788;7.318;2023-02-15T04:59:30;102038.25;;;-3.04;100.00
43125;BME280;49182;50.788;7.318;2023-02-15T05:01:56;102132.50;;;-2.50;100.00
43125;BME280;49182;50.788;7.318;2023-02-15T05:04:23;102101.72;;;-2.72;100.00
43125;BME280;49182;50.788;7.318;2023-02-15T05:06:50;102147.16;;;-2.50;100.00
43125;BME280;49182;50.788;7.318;2023-02-15T05:09:17;102139.34;;;-2.46;100.00
43125;BME280;49182;50.788;7.318;2023-02-15T05:11:43;102142.84;;;-2.48;100.00
43125;BME280;49182;50.788;7.318;2023-02-15T05:14:11;102143.69;;;-2.48;100.00
43125;BME280;49182;50.788;7.318;2023-02-15T05:16:38;102141.13;;;-2.49;100.00
43125;BME280;49182;50.788;7.318;2023-02-15T05:19:05;102134.28;;;-2.53;100.00
43125;BME280;49182;50.788;7.318;2023-02-15T05:21:32;102136.00;;;-2.55;100.00
43125;BME280;49182;50.788;7.318;2023-02-15T05:23:59;101974.97;;;-3.56;100.00
43125;BME280;49182;50.788;7.318;2023-02-15T05:26:26;102119.75;;;-2.71;100.00
43125;BME280;49182;50.788;7.318;2023-02-15T05:28:52;102144.63;;;-2.53;100.00
43125;BME280;49182;50.788;7.318;2023-02-15T05:31:20;102135.09;;;-2.48;100.00
43125;BME280;49182;50.788;7.318;2023-02-15T05:33:47;102132.50;;;-2.51;100.00
43125;BME280;49182;50.788;7.318;2023-02-15T05:36:14;102134.28;;;-2.58;100.00
43125;BME280;49182;50.788;7.318;2023-02-15T05:38:41;102122.28;;;-2.63;100.00
43125;BME280;49182;50.788;7.318;2023-02-15T05:41:09;102120.63;;;-2.69;100.00
43125;BME280;49182;50.788;7.318;2023-02-15T05:43:36;102117.97;;;-2.60;100.00
43125;BME280;49182;50.788;7.318;2023-02-15T05:46:03;102117.03;;;-2.54;100.00
43125;BME280;49182;50.788;7.318;2023-02-15T05:48:33;102135.16;;;-2.57;100.00
43125;BME280;49182;50.788;7.318;2023-02-15T05:51:01;102094.72;;;-2.64;100.00
43125;BME280;49182;50.788;7.318;2023-02-15T05:53:29;102003.22;;;-3.34;100.00
43125;BME280;49182;50.788;7.318;2023-02-15T05:55:56;102078.63;;;-2.94;100.00
43125;BME280;49182;50.788;7.318;2023-02-15T05:58:23;102127.50;;;-2.66;100.00
43125;BME280;49182;50.788;7.318;2023-02-15T06:00:50;102125.78;;;-2.69;100.00
43125;BME280;49182;50.788;7.318;2023-02-15T06:03:16;102127.50;;;-2.68;100.00
43125;BME280;49182;50.788;7.318;2023-02-15T06:05:45;102120.50;;;-2.58;100.00
43125;BME280;49182;50.788;7.318;2023-02-15T06:08:11;102122.28;;;-2.60;100.00
43125;BME280;49182;50.788;7.318;2023-02-15T06:10:38;101962.88;;;-3.50;100.00
43125;BME280;49182;50.788;7.318;2023-02-15T06:13:04;102115.44;;;-2.67;100.00
43125;BME280;49182;50.788;7.318;2023-02-15T06:15:31;102127.50;;;-2.69;100.00
43125;BME280;49182;50.788;7.318;2023-02-15T06:17:58;102098.38;;;-2.87;100.00
43125;BME280;49182;50.788;7.318;2023-02-15T06:20:24;102127.50;;;-2.71;100.00
43125;BME280;49182;50.788;7.318;2023-02-15T06:22:52;102130.09;;;-2.68;100.00
43125;BME280;49182;50.788;7.318;2023-02-15T06:25:19;102129.16;;;-2.62;100.00
43125;BME280;49182;50.788;7.318;2023-02-15T06:27:45;102107.75;;;-2.75;100.00
43125;BME280;49182;50.788;7.318;2023-02-15T06:30:13;102096.66;;;-2.86;100.00
43125;BME280;49182;50.788;7.318;2023-02-15T06:32:40;102128.31;;;-2.60;100.00
43125;BME280;49182;50.788;7.318;2023-02-15T06:35:07;102121.44;;;-2.65;100.00
43125;BME280;49182;50.788;7.318;2023-02-15T06:37:35;102126.63;;;-2.68;100.00
43125;BME280;49182;50.788;7.318;2023-02-15T06:40:05;102151.66;;;-2.72;100.00
43125;BME280;49182;50.788;7.318;2023-02-15T06:42:32;102066.72;;;-3.14;100.00
43125;BME280;49182;50.788;7.318;2023-02-15T06:44:58;102133.53;;;-2.70;100.00
43125;BME280;49182;50.788;7.318;2023-02-15T06:47:25;102120.66;;;-2.73;100.00
43125;BME280;49182;50.788;7.318;2023-02-15T06:49:51;102142.16;;;-2.67;100.00
43125;BME280;49182;50.788;7.318;2023-02-15T06:52:19;102143.91;;;-2.72;100.00
43125;BME280;49182;50.788;7.318;2023-02-15T06:54:46;102141.28;;;-2.69;100.00
43125;BME280;49182;50.788;7.318;2023-02-15T06:57:14;102135.22;;;-2.65;100.00
43125;BME280;49182;50.788;7.318;2023-02-15T06:59:40;102138.59;;;-2.57;100.00
43125;BME280;49182;50.788;7.318;2023-02-15T07:02:08;102141.22;;;-2.60;100.00
43125;BME280;49182;50.788;7.318;2023-02-15T07:04:34;102142.09;;;-2.61;100.00
43125;BME280;49182;50.788;7.318;2023-02-15T07:07:01;102142.84;;;-2.53;100.00
43125;BME280;49182;50.788;7.318;2023-02-15T07:09:27;102139.38;;;-2.47;100.00
43125;BME280;49182;50.788;7.318;2023-02-15T07:11:54;102100.81;;;-2.71;100.00
43125;BME280;49182;50.788;7.318;2023-02-15T07:14:22;102101.72;;;-2.72;100.00
43125;BME280;49182;50.788;7.318;2023-02-15T07:16:49;102125.66;;;-2.57;100.00
43125;BME280;49182;50.788;7.318;2023-02-15T07:19:16;102125.66;;;-2.55;100.00
43125;BME280;49182;50.788;7.318;2023-02-15T07:21:42;102126.47;;;-2.50;100.00
43125;BME280;49182;50.788;7.318;2023-02-15T07:24:09;102118.66;;;-2.44;100.00
43125;BME280;49182;50.788;7.318;2023-02-15T07:26:36;102115.19;;;-2.43;100.00
43125;BME280;49182;50.788;7.318;2023-02-15T07:29:02;102114.34;;;-2.47;100.00
43125;BME280;49182;50.788;7.318;2023-02-15T07:31:30;102111.75;;;-2.42;100.00
43125;BME280;49182;50.788;7.318;2023-02-15T07:33:57;102120.38;;;-2.41;100.00
43125;BME280;49182;50.788;7.318;2023-02-15T07:36:23;102119.47;;;-2.40;100.00
43125;BME280;49182;50.788;7.318;2023-02-15T07:38:50;102116.00;;;-2.38;100.00
43125;BME280;49182;50.788;7.318;2023-02-15T07:41:16;102117.69;;;-2.34;100.00
43125;BME280;49182;50.788;7.318;2023-02-15T07:43:44;102115.00;;;-2.23;100.00
43125;BME280;49182;50.788;7.318;2023-02-15T07:46:12;102108.91;;;-2.18;100.00
43125;BME280;49182;50.788;7.318;2023-02-15T07:48:42;102110.59;;;-2.15;100.00
43125;BME280;49182;50.788;7.318;2023-02-15T07:51:10;102101.84;;;-2.05;100.00
43125;BME280;49182;50.788;7.318;2023-02-15T07:53:38;102098.34;;;-1.98;100.00
43125;BME280;49182;50.788;7.318;2023-02-15T07:56:06;102094.75;;;-1.89;100.00
43125;BME280;49182;50.788;7.318;2023-02-15T07:58:33;102094.72;;;-1.86;100.00
43125;BME280;49182;50.788;7.318;2023-02-15T08:01:00;102083.44;;;-1.82;100.00
43125;BME280;49182;50.788;7.318;2023-02-15T08:03:27;102088.44;;;-1.67;100.00
43125;BME280;49182;50.788;7.318;2023-02-15T08:05:57;102077.94;;;-1.56;100.00
43125;BME280;49182;50.788;7.318;2023-02-15T08:08:25;102079.56;;;-1.51;100.00
43125;BME280;49182;50.788;7.318;2023-02-15T08:10:52;102079.47;;;-1.45;100.00
43125;BME280;49182;50.788;7.318;2023-02-15T08:13:19;102079.47;;;-1.45;100.00
43125;BME280;49182;50.788;7.318;2023-02-15T08:15:48;102073.31;;;-1.36;100.00
43125;BME280;49182;50.788;7.318;2023-02-15T08:18:15;102072.28;;;-1.25;100.00
43125;BME280;49182;50.788;7.318;2023-02-15T08:20:42;102072.03;;;-1.09;100.00
43125;BME280;49182;50.788;7.318;2023-02-15T08:23:10;102068.34;;;-0.96;100.00
43125;BME280;49182;50.788;7.318;2023-02-15T08:25:37;102059.50;;;-0.85;100.00
43125;BME280;49182;50.788;7.318;2023-02-15T08:28:03;102053.00;;;-0.58;100.00
43125;BME280;49182;50.788;7.318;2023-02-15T08:30:30;102065.63;;;-0.39;100.00
43125;BME280;49182;50.788;7.318;2023-02-15T08:32:57;102067.72;;;-0.14;100.00
43125;BME280;49182;50.788;7.318;2023-02-15T08:35:23;102061.41;;;-0.02;100.00
43125;BME280;49182;50.788;7.318;2023-02-15T08:37:51;102055.72;;;0.21;100.00
43125;BME280;49182;50.788;7.318;2023-02-15T08:40:19;102057.13;;;0.37;100.00
43125;BME280;49182;50.788;7.318;2023-02-15T08:42:45;102062.06;;;0.48;100.00
43125;BME280;49182;50.788;7.318;2023-02-15T08:45:12;102053.09;;;0.61;100.00
43125;BME280;49182;50.788;7.318;2023-02-15T08:47:38;102060.34;;;0.84;100.00
43125;BME280;49182;50.788;7.318;2023-02-15T08:50:06;102058.28;;;0.98;100.00
43125;BME280;49182;50.788;7.318;2023-02-15T08:52:32;102059.53;;;1.17;100.00
43125;BME280;49182;50.788;7.318;2023-02-15T08:54:59;102057.50;;;1.28;100.00
43125;BME280;49182;50.788;7.318;2023-02-15T08:57:27;102017.13;;;1.13;100.00
43125;BME280;49182;50.788;7.318;2023-02-15T08:59:53;102052.66;;;1.47;100.00
43125;BME280;49182;50.788;7.318;2023-02-15T09:02:20;102053.91;;;1.65;98.52
43125;BME280;49182;50.788;7.318;2023-02-15T09:04:47;102048.69;;;1.65;99.10
43125;BME280;49182;50.788;7.318;2023-02-15T09:07:13;102040.44;;;1.80;97.70
43125;BME280;49182;50.788;7.318;2023-02-15T09:09:40;102036.78;;;1.87;97.92
43125;BME280;49182;50.788;7.318;2023-02-15T09:12:06;102027.53;;;2.06;96.16
43125;BME280;49182;50.788;7.318;2023-02-15T09:14:34;102013.25;;;1.90;96.56
43125;BME280;49182;50.788;7.318;2023-02-15T09:17:01;102029.03;;;2.15;96.16
43125;BME280;49182;50.788;7.318;2023-02-15T09:19:28;102037.25;;;2.29;94.71
43125;BME280;49182;50.788;7.318;2023-02-15T09:21:54;102028.13;;;2.43;94.46
43125;BME280;49182;50.788;7.318;2023-02-15T09:24:21;102021.84;;;2.49;92.85
43125;BME280;49182;50.788;7.318;2023-02-15T09:26:48;102021.63;;;2.57;93.18
43125;BME280;49182;50.788;7.318;2023-02-15T09:29:16;102025.50;;;2.71;92.74
43125;BME280;49182;50.788;7.318;2023-02-15T09:31:46;102029.75;;;2.74;92.61
43125;BME280;49182;50.788;7.318;2023-02-15T09:34:15;102035.63;;;2.80;92.03
43125;BME280;49182;50.788;7.318;2023-02-15T09:36:42;102017.78;;;2.95;90.65
43125;BME280;49182;50.788;7.318;2023-02-15T09:39:10;102027.78;;;3.07;90.71
43125;BME280;49182;50.788;7.318;2023-02-15T09:41:50;102028.56;;;3.09;90.70
43125;BME280;49182;50.788;7.318;2023-02-15T09:44:30;102028.97;;;3.23;90.21
43125;BME280;49182;50.788;7.318;2023-02-15T09:47:13;102029.53;;;3.33;90.16
43125;BME280;49182;50.788;7.318;2023-02-15T09:49:49;102037.91;;;3.41;89.63
43125;BME280;49182;50.788;7.318;2023-02-15T09:52:48;102041.84;;;3.52;88.96
43125;BME280;49182;50.788;7.318;2023-02-15T09:55:30;102033.47;;;3.67;86.13
43125;BME280;49182;50.788;7.318;2023-02-15T09:58:05;102044.22;;;3.83;85.83
43125;BME280;49182;50.788;7.318;2023-02-15T10:00:40;102048.38;;;3.89;84.69
43125;BME280;49182;50.788;7.318;2023-02-15T10:03:30;102050.59;;;3.99;84.38
43125;BME280;49182;50.788;7.318;2023-02-15T10:06:11;102046.09;;;4.03;84.65
43125;BME280;49182;50.788;7.318;2023-02-15T10:09:00;102046.66;;;4.11;84.85
43125;BME280;49182;50.788;7.318;2023-02-15T10:11:38;102037.59;;;4.20;85.50
43125;BME280;49182;50.788;7.318;2023-02-15T10:14:33;102039.69;;;4.33;83.71
43125;BME280;49182;50.788;7.318;2023-02-15T10:17:06;102038.44;;;4.43;83.83
43125;BME280;49182;50.788;7.318;2023-02-15T10:19:42;102038.63;;;4.61;83.04
43125;BME280;49182;50.788;7.318;2023-02-15T10:22:23;102038.06;;;4.74;82.84
43125;BME280;49182;50.788;7.318;2023-02-15T10:25:06;102034.34;;;4.80;82.47
43125;BME280;49182;50.788;7.318;2023-02-15T10:27:38;102040.41;;;5.02;80.06
43125;BME280;49182;50.788;7.318;2023-02-15T10:30:11;102035.72;;;5.10;79.33
43125;BME280;49182;50.788;7.318;2023-02-15T10:32:44;102040.69;;;5.16;79.83
43125;BME280;49182;50.788;7.318;2023-02-15T10:35:20;102040.09;;;5.30;79.42
43125;BME280;49182;50.788;7.318;2023-02-15T10:38:07;102036.16;;;5.40;80.25
43125;BME280;49182;50.788;7.318;2023-02-15T10:40:41;102038.94;;;5.56;78.76
43125;BME280;49182;50.788;7.318;2023-02-15T10:43:27;102035.09;;;5.64;77.89
43125;BME280;49182;50.788;7.318;2023-02-15T10:46:05;102023.41;;;5.72;77.05
43125;BME280;49182;50.788;7.318;2023-02-15T10:48:57;102028.16;;;5.82;79.22
43125;BME280;49182;50.788;7.318;2023-02-15T10:51:38;102024.00;;;5.98;76.55
43125;BME280;49182;50.788;7.318;2023-02-15T10:54:19;102034.59;;;6.14;77.61
43125;BME280;49182;50.788;7.318;2023-02-15T10:56:54;102027.72;;;6.30;75.22
43125;BME280;49182;50.788;7.318;2023-02-15T10:59:44;102022.31;;;6.52;75.66
43125;BME280;49182;50.788;7.318;2023-02-15T11:02:21;102015.84;;;6.59;73.92
43125;BME280;49182;50.788;7.318;2023-02-15T11:05:02;102005.97;;;6.64;74.37
43125;BME280;49182;50.788;7.318;2023-02-15T11:07:38;102004.22;;;6.82;72.52
43125;BME280;49182;50.788;7.318;2023-02-15T11:10:20;101976.72;;;6.72;71.79
43125;BME280;49182;50.788;7.318;2023-02-15T11:12:49;102003.22;;;7.02;71.44
43125;BME280;49182;50.788;7.318;2023-02-15T11:15:20;101986.69;;;7.00;71.73
43125;BME280;49182;50.788;7.318;2023-02-15T11:17:56;101995.03;;;7.08;72.76
43125;BME280;49182;50.788;7.318;2023-02-15T11:20:28;101994.22;;;7.23;70.11
43125;BME280;49182;50.788;7.318;2023-02-15T11:22:59;101988.97;;;7.23;70.90
43125;BME280;49182;50.788;7.318;2023-02-15T11:25:31;101987.41;;;7.36;70.29
43125;BME280;49182;50.788;7.318;2023-02-15T11:27:58;101973.38;;;7.37;69.20
43125;BME280;49182;50.788;7.318;2023-02-15T11:30:40;101967.84;;;7.42;71.08
43125;BME280;49182;50.788;7.318;2023-02-15T11:33:15;101963.53;;;7.73;68.63
43125;BME280;49182;50.788;7.318;2023-02-15T11:35:48;101961.34;;;7.82;69.20
43125;BME280;49182;50.788;7.318;2023-02-15T11:38:20;101953.69;;;7.93;68.00
43125;BME280;49182;50.788;7.318;2023-02-15T11:40:48;101954.38;;;7.96;68.86
43125;BME280;49182;50.788;7.318;2023-02-15T11:43:20;101952.34;;;8.17;66.95
43125;BME280;49182;50.788;7.318;2023-02-15T11:45:49;101946.16;;;8.18;65.98
43125;BME280;49182;50.788;7.318;2023-02-15T11:48:15;101956.25;;;8.26;64.74
43125;BME280;49182;50.788;7.318;2023-02-15T11:50:43;101952.34;;;8.17;65.85
43125;BME280;49182;50.788;7.318;2023-02-15T11:53:13;101950.47;;;8.19;66.37
43125;BME280;49182;50.788;7.318;2023-02-15T11:55:44;101943.75;;;8.29;66.13
43125;BME280;49182;50.788;7.318;2023-02-15T11:58:21;101941.16;;;8.45;65.45
43125;BME280;49182;50.788;7.318;2023-02-15T12:00:52;101935.34;;;8.54;65.34
43125;BME280;49182;50.788;7.318;2023-02-15T12:03:22;101933.50;;;8.70;64.86
43125;BME280;49182;50.788;7.318;2023-02-15T12:05:54;101930.16;;;8.82;66.30
43125;BME280;49182;50.788;7.318;2023-02-15T12:08:23;101920.00;;;8.90;63.87
43125;BME280;49182;50.788;7.318;2023-02-15T12:10:58;101925.38;;;9.03;64.35
43125;BME280;49182;50.788;7.318;2023-02-15T12:13:28;101920.13;;;9.17;62.89
43125;BME280;49182;50.788;7.318;2023-02-15T12:15:56;101917.69;;;9.28;63.77
43125;BME280;49182;50.788;7.318;2023-02-15T12:18:34;101918.81;;;9.39;62.04
43125;BME280;49182;50.788;7.318;2023-02-15T12:21:03;101908.84;;;9.44;62.88
43125;BME280;49182;50.788;7.318;2023-02-15T12:23:32;101908.19;;;9.54;61.80
43125;BME280;49182;50.788;7.318;2023-02-15T12:26:00;101901.84;;;9.57;61.67
43125;BME280;49182;50.788;7.318;2023-02-15T12:28:32;101893.56;;;9.63;61.52
43125;BME280;49182;50.788;7.318;2023-02-15T12:31:02;101894.97;;;9.68;61.98
43125;BME280;49182;50.788;7.318;2023-02-15T12:33:34;101884.22;;;9.71;61.66
43125;BME280;49182;50.788;7.318;2023-02-15T12:36:08;101881.47;;;9.87;60.78
43125;BME280;49182;50.788;7.318;2023-02-15T12:38:36;101886.22;;;9.95;61.18
43125;BME280;49182;50.788;7.318;2023-02-15T12:41:22;101875.00;;;10.05;60.58
43125;BME280;49182;50.788;7.318;2023-02-15T12:44:03;101871.84;;;10.13;60.75
43125;BME280;49182;50.788;7.318;2023-02-15T12:46:31;101870.97;;;10.27;60.28
43125;BME280;49182;50.788;7.318;2023-02-15T12:49:18;101866.22;;;10.32;59.58
43125;BME280;49182;50.788;7.318;2023-02-15T12:51:48;101868.28;;;10.41;59.06
43125;BME280;49182;50.788;7.318;2023-02-15T12:54:16;101873.25;;;10.45;59.35
43125;BME280;49182;50.788;7.318;2023-02-15T12:56:50;101861.72;;;10.46;58.92
43125;BME280;49182;50.788;7.318;2023-02-15T12:59:18;101871.25;;;10.49;59.99
43125;BME280;49182;50.788;7.318;2023-02-15T13:01:50;101863.44;;;10.60;59.32
43125;BME280;49182;50.788;7.318;2023-02-15T13:04:22;101857.94;;;10.63;58.26
43125;BME280;49182;50.788;7.318;2023-02-15T13:06:52;101849.69;;;10.68;59.68